Time;durP1;ratioP1;P1;durP2;ratioP2;P2;SDS_P1;SDS_P2;PMS_P1;PMS_P2;Temp;Humidity;BMP_temperature;BMP_pressure;BME280_temperature;BME280_humidity;BME280_pressure;Samples;Min_cycle;Max_cycle;Signal;HPM_P1;HPM_P2
2023/04/05 00:02:35;;;;;;;26.88;14.48;;;-0.10;99.90;;;;;;2622174;46;20038;31
2023/04/05 00:05:13;;;;;;;28.30;13.68;;;-0.20;99.90;;;;;;2621984;46;20034;31
2023/04/05 00:07:53;;;;;;;27.30;13.77;;;-0.20;99.90;;;;;;2702049;39;20469;31
2023/04/05 00:10:31;;;;;;;24.30;12.80;;;-0.30;99.90;;;;;;2603570;54;20466;31
2023/04/05 00:13:05;;;;;;;27.98;13.63;;;-0.30;99.90;;;;;;2622188;46;20250;31
2023/04/05 00:15:45;;;;;;;25.10;11.47;;;-0.40;99.90;;;;;;2603667;54;19938;31
2023/04/05 00:18:25;;;;;;;23.83;12.15;;;-0.40;99.90;;;;;;2603617;54;19985;31
2023/04/05 00:21:01;;;;;;;23.67;11.57;;;-0.50;99.90;;;;;;2603517;54;20030;31
2023/04/05 00:23:40;;;;;;;24.75;11.63;;;-0.50;99.90;;;;;;2621883;46;20038;31
2023/04/05 00:26:17;;;;;;;24.67;12.40;;;-0.50;99.90;;;;;;2602929;54;20840;31
2023/04/05 00:28:58;;;;;;;22.40;11.35;;;-0.60;99.90;;;;;;2614601;46;20835;31
2023/04/05 00:31:33;;;;;;;25.10;11.80;;;-0.70;99.90;;;;;;2602872;54;20049;31
2023/04/05 00:34:15;;;;;;;27.00;11.25;;;-0.70;99.90;;;;;;2622008;46;20268;31
2023/04/05 00:36:52;;;;;;;23.05;10.98;;;-0.60;99.90;;;;;;2603463;54;20034;31
2023/04/05 00:39:30;;;;;;;23.00;11.03;;;-0.70;99.90;;;;;;2702122;39;20440;31
2023/04/05 00:42:07;;;;;;;22.45;12.00;;;-0.60;99.90;;;;;;2622046;46;20242;31
2023/04/05 00:44:45;;;;;;;23.93;10.77;;;-0.60;99.90;;;;;;2603785;54;20041;31
2023/04/05 00:47:23;;;;;;;18.08;9.20;;;-0.70;99.90;;;;;;2615247;46;20034;31
2023/04/05 00:50:02;;;;;;;20.73;9.80;;;-0.70;99.90;;;;;;2612416;46;20847;31
2023/04/05 00:52:39;;;;;;;26.20;13.25;;;-0.70;99.90;;;;;;2603479;54;19942;31
2023/04/05 00:55:18;;;;;;;22.88;11.57;;;-0.70;99.90;;;;;;2603434;54;20030;31
2023/04/05 00:57:55;;;;;;;26.40;12.20;;;-0.80;99.90;;;;;;2603290;54;20046;31
2023/04/05 01:00:31;;;;;;;22.50;10.93;;;-0.80;99.90;;;;;;2602977;54;20866;31
2023/04/05 01:03:06;;;;;;;;;;;-0.80;99.90;;;;;;2602916;54;21095;31
2023/04/05 01:05:50;;;;;;;22.15;10.32;;;-0.80;99.90;;;;;;2603560;54;20024;31
2023/04/05 01:08:28;;;;;;;25.27;12.13;;;-0.90;99.90;;;;;;2603387;54;20045;31
2023/04/05 01:11:06;;;;;;;27.90;13.00;;;-0.80;99.90;;;;;;2603318;54;20148;31
2023/04/05 01:13:42;;;;;;;27.45;12.70;;;-0.90;99.90;;;;;;2603726;54;20026;31
2023/04/05 01:16:19;;;;;;;23.58;11.65;;;-1.00;99.90;;;;;;2720035;39;20480;31
2023/04/05 01:18:55;;;;;;;26.52;12.57;;;-1.10;99.90;;;;;;2621770;46;20906;31
2023/04/05 01:22:25;;;;;;;23.55;12.95;;;-1.10;99.90;;;;;;2603310;54;20181;31
2023/04/05 01:25:33;;;;;;;27.40;12.70;;;-1.10;99.90;;;;;;2603406;54;20861;31
2023/04/05 01:28:21;;;;;;;25.10;12.75;;;-1.10;99.90;;;;;;2616833;46;20034;31
2023/04/05 01:31:02;;;;;;;23.40;11.23;;;-1.10;99.90;;;;;;2603219;54;20026;31
2023/04/05 01:33:41;;;;;;;27.75;12.57;;;-1.10;99.90;;;;;;2603329;54;20242;31
2023/04/05 01:36:19;;;;;;;27.25;13.85;;;-1.20;99.90;;;;;;2603175;54;20034;31
2023/04/05 01:38:59;;;;;;;26.08;12.73;;;-1.20;99.90;;;;;;2603377;54;20034;31
2023/04/05 01:41:34;;;;;;;27.70;11.75;;;-1.30;99.90;;;;;;2603116;54;20116;31
2023/04/05 01:44:16;;;;;;;25.38;12.90;;;-1.30;99.90;;;;;;2603245;54;20899;31
2023/04/05 01:46:56;;;;;;;28.20;13.00;;;-1.40;99.90;;;;;;2602373;54;20050;31
2023/04/05 01:49:38;;;;;;;33.35;14.63;;;-1.30;99.90;;;;;;2602472;54;20022;31
2023/04/05 01:52:18;;;;;;;24.50;12.60;;;-1.40;99.90;;;;;;2603550;54;20105;31
2023/04/05 01:54:56;;;;;;;34.80;13.67;;;-1.50;99.90;;;;;;2603275;54;19938;31
2023/04/05 01:57:33;;;;;;;29.83;13.20;;;-1.50;99.90;;;;;;2603179;54;20099;31
2023/04/05 02:00:12;;;;;;;29.00;12.60;;;-1.50;99.90;;;;;;2603102;54;20075;31
2023/04/05 02:02:53;;;;;;;29.65;13.40;;;-1.50;99.90;;;;;;2603045;54;20038;31
2023/04/05 02:05:30;;;;;;;29.20;12.90;;;-1.50;99.90;;;;;;2603384;54;20034;31
2023/04/05 02:08:06;;;;;;;24.63;11.75;;;-1.50;99.90;;;;;;2701652;39;21543;31
2023/04/05 02:10:43;;;;;;;28.17;13.40;;;-1.50;99.90;;;;;;2603339;54;21731;31
2023/04/05 02:13:17;;;;;;;29.75;13.27;;;-1.50;99.90;;;;;;2603175;54;20070;31
2023/04/05 02:15:52;;;;;;;23.88;12.73;;;-1.50;99.90;;;;;;2619684;46;20049;31
2023/04/05 02:18:32;;;;;;;26.17;12.40;;;-1.50;99.90;;;;;;2719922;39;21376;31
2023/04/05 02:21:11;;;;;;;23.38;11.93;;;-1.50;99.90;;;;;;2603254;54;20027;31
2023/04/05 02:23:46;;;;;;;24.77;11.43;;;-1.50;99.90;;;;;;2603147;54;20031;31
2023/04/05 02:26:25;;;;;;;25.13;12.50;;;-1.60;99.90;;;;;;2603205;54;20246;31
2023/04/05 02:29:02;;;;;;;22.05;10.00;;;-1.50;99.90;;;;;;2791229;31;20603;31
2023/04/05 02:31:38;;;;;;;20.48;9.95;;;-1.50;99.90;;;;;;2621625;46;20104;31
2023/04/05 02:34:17;;;;;;;21.75;10.30;;;-1.50;99.90;;;;;;2603390;54;20030;31
2023/04/05 02:36:52;;;;;;;28.45;12.77;;;-1.50;99.90;;;;;;2621401;47;20123;31
2023/04/05 02:39:29;;;;;;;27.40;12.50;;;-1.50;99.90;;;;;;2603401;54;20034;31
2023/04/05 02:42:05;;;;;;;24.67;12.37;;;-1.50;99.90;;;;;;2603058;54;20840;31
2023/04/05 02:44:42;;;;;;;25.53;13.40;;;-1.60;99.90;;;;;;2700679;39;20409;31
2023/04/05 02:47:22;;;;;;;26.83;12.45;;;-1.60;99.90;;;;;;2700318;39;20669;31
2023/04/05 02:50:11;;;;;;;27.00;12.77;;;-1.60;99.90;;;;;;2621024;47;20817;31
2023/04/05 02:52:51;;;;;;;22.90;11.85;;;-1.60;99.90;;;;;;2603726;54;20032;31
2023/04/05 02:55:28;;;;;;;27.85;13.60;;;-1.60;99.90;;;;;;2604106;54;20833;31
2023/04/05 02:58:16;;;;;;;25.25;12.25;;;-1.60;99.90;;;;;;2622509;46;20037;31
2023/04/05 03:00:58;;;;;;;25.20;12.00;;;-1.60;99.90;;;;;;2603644;54;20802;31
2023/04/05 03:03:36;;;;;;;23.88;11.55;;;-1.60;99.90;;;;;;2702737;39;21026;31
2023/04/05 03:06:17;;;;;;;20.55;9.60;;;-1.60;99.90;;;;;;2603977;54;20027;31
2023/04/05 03:08:54;;;;;;;22.85;11.75;;;-1.60;99.90;;;;;;2622418;46;20748;31
2023/04/05 03:11:32;;;;;;;18.25;9.75;;;-1.60;99.90;;;;;;2603877;54;20137;31
2023/04/05 03:14:07;;;;;;;;;;;-1.60;99.90;;;;;;2604042;54;20538;31
2023/04/05 03:16:49;;;;;;;19.77;8.25;;;-1.60;99.90;;;;;;2603213;54;19934;31
2023/04/05 03:19:50;;;;;;;20.05;10.02;;;-1.60;99.90;;;;;;2603678;54;20084;31
2023/04/05 03:22:35;;;;;;;20.98;10.70;;;-1.60;99.90;;;;;;2603739;54;20642;31
2023/04/05 03:25:15;;;;;;;22.80;12.05;;;-1.60;99.90;;;;;;2603777;54;20741;31
2023/04/05 03:27:56;;;;;;;26.40;12.00;;;-1.60;99.90;;;;;;2602881;54;20183;31
2023/04/05 03:30:37;;;;;;;24.25;12.02;;;-1.50;99.90;;;;;;2603644;54;20861;31
2023/04/05 03:33:26;;;;;;;21.85;11.35;;;-1.50;99.90;;;;;;2603620;54;20601;31
2023/04/05 03:36:05;;;;;;;23.40;11.73;;;-1.50;99.90;;;;;;2603001;54;20074;31
2023/04/05 03:38:47;;;;;;;24.90;12.35;;;-1.60;99.90;;;;;;2603870;54;20030;31
2023/04/05 03:41:27;;;;;;;27.10;12.65;;;-1.50;99.90;;;;;;2621876;46;20941;31
2023/04/05 03:44:03;;;;;;;29.58;14.68;;;-1.50;99.90;;;;;;2603826;54;20553;31
2023/04/05 03:46:41;;;;;;;23.87;11.93;;;-1.50;99.90;;;;;;2602905;54;20956;31
2023/04/05 03:49:18;;;;;;;27.80;12.57;;;-1.50;99.90;;;;;;2618491;46;20307;31
2023/04/05 03:51:53;;;;;;;22.95;11.30;;;-1.50;99.90;;;;;;2603700;54;20028;31
2023/04/05 03:54:32;;;;;;;18.40;9.75;;;-1.50;99.90;;;;;;2603704;54;20592;31
2023/04/05 03:57:10;;;;;;;20.50;10.17;;;-1.50;99.90;;;;;;2603520;54;20583;31
2023/04/05 03:59:50;;;;;;;22.90;11.35;;;-1.50;99.90;;;;;;2602757;54;21527;31
2023/04/05 04:02:30;;;;;;;25.50;10.77;;;-1.60;99.90;;;;;;2702246;39;20473;31
2023/04/05 04:07:47;;;;;;;;;;;-1.60;99.90;;;;;;2603673;54;20079;31
2023/04/05 04:10:25;;;;;;;26.00;11.25;;;-1.70;99.90;;;;;;2603442;54;21237;31
2023/04/05 04:13:03;;;;;;;23.17;10.20;;;-1.70;99.90;;;;;;2603485;54;20863;31
2023/04/05 04:15:42;;;;;;;20.75;9.55;;;-1.70;99.90;;;;;;2603524;54;21275;31
2023/04/05 04:18:32;;;;;;;23.90;9.93;;;-1.70;99.90;;;;;;2621988;46;20076;31
2023/04/05 04:21:26;;;;;;;25.70;11.50;;;-1.80;99.90;;;;;;2603523;54;20934;31
2023/04/05 04:24:31;;;;;;;25.25;10.40;;;-1.80;99.90;;;;;;2603399;54;20022;31
2023/04/05 04:27:10;;;;;;;21.95;10.75;;;-1.80;99.90;;;;;;2603465;54;20030;31
2023/04/05 04:30:00;;;;;;;25.90;12.60;;;-1.80;99.90;;;;;;2603378;54;20067;31
2023/04/05 04:35:23;;;;;;;22.40;10.13;;;-1.90;99.90;;;;;;2622003;46;20140;31
2023/04/05 04:38:19;;;;;;;22.35;10.90;;;-1.90;99.90;;;;;;2603551;54;19941;31
2023/04/05 04:41:37;;;;;;;20.97;9.53;;;-1.90;99.90;;;;;;2603557;54;20027;31
2023/04/05 04:44:41;;;;;;;21.13;9.57;;;-1.90;99.90;;;;;;2603605;54;20867;31
2023/04/05 04:47:41;;;;;;;21.70;10.65;;;-1.90;99.90;;;;;;2622307;46;20062;31
2023/04/05 04:50:27;;;;;;;26.85;11.85;;;-1.90;99.90;;;;;;2603321;54;20033;31
2023/04/05 04:53:12;;;;;;;23.65;12.05;;;-1.90;99.90;;;;;;2603472;54;20022;31
2023/04/05 04:55:53;;;;;;;23.20;11.80;;;-1.80;99.90;;;;;;2603413;54;20114;31
2023/04/05 04:58:30;;;;;;;23.65;11.68;;;-1.80;99.90;;;;;;2702242;39;20374;31
2023/04/05 05:01:16;;;;;;;23.35;11.07;;;-1.70;99.90;;;;;;2622120;46;20022;31
2023/04/05 05:03:53;;;;;;;24.55;11.30;;;-1.70;99.90;;;;;;2603519;54;20103;31
2023/04/05 05:06:34;;;;;;;27.33;11.50;;;-1.60;99.90;;;;;;2603544;54;20886;31
2023/04/05 05:09:14;;;;;;;25.15;11.20;;;-1.60;99.90;;;;;;2603486;54;20265;31
2023/04/05 05:12:00;;;;;;;24.85;11.55;;;-1.60;99.90;;;;;;2621931;46;20022;31
2023/04/05 05:14:35;;;;;;;21.70;9.83;;;-1.50;99.90;;;;;;2622014;46;20049;31
2023/04/05 05:17:13;;;;;;;35.47;16.90;;;-1.50;99.90;;;;;;2603081;54;21078;31
2023/04/05 05:19:50;;;;;;;27.20;14.57;;;-1.50;99.90;;;;;;2602583;54;21823;31
2023/04/05 05:22:27;;;;;;;30.25;14.70;;;-1.50;99.90;;;;;;2603452;54;20356;31
2023/04/05 05:25:06;;;;;;;34.35;18.35;;;-1.40;99.90;;;;;;2603478;54;20026;31
2023/04/05 05:27:45;;;;;;;33.38;17.48;;;-1.30;99.90;;;;;;2701534;39;21702;31
2023/04/05 05:30:25;;;;;;;35.85;19.50;;;-1.30;99.90;;;;;;2602721;54;20829;31
2023/04/05 05:33:03;;;;;;;29.45;16.98;;;-1.20;99.90;;;;;;2603188;54;20140;31
2023/04/05 05:35:42;;;;;;;33.17;15.88;;;-1.20;99.90;;;;;;2603311;54;20759;31
2023/04/05 05:38:17;;;;;;;35.70;18.92;;;-1.10;99.90;;;;;;2610348;46;20025;31
2023/04/05 05:40:58;;;;;;;32.40;16.00;;;-1.00;99.90;;;;;;2603286;54;20834;31
2023/04/05 05:43:36;;;;;;;27.55;13.60;;;-1.00;99.90;;;;;;2603368;54;20085;31
2023/04/05 05:46:16;;;;;;;27.13;12.98;;;-0.90;99.90;;;;;;2621966;46;20034;31
2023/04/05 05:48:58;;;;;;;28.73;13.23;;;-0.90;99.90;;;;;;2603368;54;20095;31
2023/04/05 05:51:35;;;;;;;24.30;12.90;;;-0.80;99.90;;;;;;2621603;46;20593;31
2023/04/05 05:54:11;;;;;;;27.17;13.05;;;-0.70;99.90;;;;;;2603306;54;20901;31
2023/04/05 05:56:48;;;;;;;25.58;13.05;;;-0.60;99.90;;;;;;2603238;54;20501;31
2023/04/05 05:59:25;;;;;;;23.70;13.45;;;-0.60;99.90;;;;;;2603208;54;20026;31
2023/04/05 06:02:01;;;;;;;26.50;12.90;;;-0.50;99.90;;;;;;2603211;54;20769;31
2023/04/05 06:04:44;;;;;;;21.27;12.93;;;-0.50;99.90;;;;;;2603365;54;20886;31
2023/04/05 06:07:23;;;;;;;42.58;14.90;;;-0.40;99.90;;;;;;2602351;54;20060;31
2023/04/05 06:10:01;;;;;;;27.10;12.82;;;-0.30;99.90;;;;;;2621373;46;20030;31
2023/04/05 06:12:38;;;;;;;28.63;14.03;;;-0.20;99.90;;;;;;2602713;54;20947;31
2023/04/05 06:15:14;;;;;;;28.40;13.65;;;-0.10;99.90;;;;;;2603323;54;20804;31
2023/04/05 06:17:52;;;;;;;31.27;13.97;;;-0.10;99.90;;;;;;2603424;54;20088;31
2023/04/05 06:20:29;;;;;;;28.30;12.68;;;0.00;99.90;;;;;;2603047;54;20104;31
2023/04/05 06:23:05;;;;;;;33.55;16.40;;;0.10;99.90;;;;;;2603384;54;20116;31
2023/04/05 06:25:40;;;;;;;32.30;17.15;;;0.20;99.90;;;;;;2603409;54;20578;31
2023/04/05 06:28:19;;;;;;;25.88;15.85;;;0.30;99.90;;;;;;2603002;54;20308;31
2023/04/05 06:30:56;;;;;;;23.55;12.60;;;0.40;99.90;;;;;;2621749;46;20806;31
2023/04/05 06:33:38;;;;;;;20.00;10.95;;;0.50;99.90;;;;;;2603105;54;20033;31
2023/04/05 06:36:26;;;;;;;20.95;11.50;;;0.60;99.90;;;;;;2603231;54;20027;31
2023/04/05 06:39:09;;;;;;;25.47;10.77;;;0.70;99.90;;;;;;2602987;54;20908;31
2023/04/05 06:41:45;;;;;;;18.98;10.65;;;0.70;99.90;;;;;;2602927;54;20936;31
2023/04/05 06:44:21;;;;;;;24.60;12.60;;;0.80;99.90;;;;;;2603170;54;20570;31
2023/04/05 06:46:58;;;;;;;19.70;10.95;;;0.90;99.90;;;;;;2603211;54;20850;31
2023/04/05 06:49:34;;;;;;;18.90;10.35;;;0.90;99.90;;;;;;2603107;54;20016;31
2023/04/05 06:52:12;;;;;;;23.50;11.47;;;1.00;99.90;;;;;;2602895;54;20618;31
2023/04/05 06:54:49;;;;;;;23.63;10.85;;;1.10;99.90;;;;;;2602217;54;20407;31
2023/04/05 06:57:24;;;;;;;23.33;11.75;;;1.20;99.90;;;;;;2602358;54;20581;31
2023/04/05 07:00:10;;;;;;;24.48;10.82;;;1.20;99.90;;;;;;2602147;54;20589;31
2023/04/05 07:02:55;;;;;;;18.90;10.02;;;1.30;99.90;;;;;;2607435;47;19957;31
2023/04/05 07:05:33;;;;;;;19.33;10.60;;;1.20;99.90;;;;;;2603023;54;20899;31
2023/04/05 07:08:13;;;;;;;20.30;10.50;;;1.30;99.90;;;;;;2603128;54;20033;31
2023/04/05 07:10:52;;;;;;;23.38;10.70;;;1.40;99.90;;;;;;2602869;54;20907;31
2023/04/05 07:13:32;;;;;;;20.85;11.65;;;1.40;99.90;;;;;;2603125;54;20160;31
2023/04/05 07:16:09;;;;;;;21.80;10.35;;;1.50;99.90;;;;;;2719931;39;21341;31
2023/04/05 07:18:48;;;;;;;25.20;10.80;;;1.60;99.90;;;;;;2719892;39;21465;31
2023/04/05 07:21:26;;;;;;;20.30;10.18;;;1.60;99.90;;;;;;2603087;54;20036;31
2023/04/05 07:24:11;;;;;;;20.97;11.03;;;1.60;99.90;;;;;;2772025;31;20571;31
2023/04/05 07:26:46;;;;;;;19.17;11.30;;;1.80;99.90;;;;;;2602066;54;20269;31
2023/04/05 07:29:23;;;;;;;20.77;10.25;;;1.90;99.90;;;;;;2603072;54;20809;31
2023/04/05 07:32:00;;;;;;;21.70;10.57;;;1.90;99.90;;;;;;2602105;54;20027;31
2023/04/05 07:34:38;;;;;;;21.02;10.13;;;2.00;99.90;;;;;;2603118;54;20046;31
2023/04/05 07:37:18;;;;;;;23.88;11.73;;;2.10;99.90;;;;;;2603004;54;20081;31
2023/04/05 07:39:57;;;;;;;21.55;11.40;;;2.10;99.90;;;;;;2603390;54;20030;31
2023/04/05 07:42:34;;;;;;;22.77;11.93;;;2.20;99.90;;;;;;2622228;46;20039;31
2023/04/05 07:45:12;;;;;;;21.60;12.20;;;2.10;99.90;;;;;;2702146;39;20499;31
2023/04/05 07:47:50;;;;;;;22.35;11.75;;;2.10;99.90;;;;;;2622394;46;20038;31
2023/04/05 07:50:28;;;;;;;23.50;11.15;;;2.10;99.90;;;;;;2603841;54;20033;31
2023/04/05 07:53:07;;;;;;;22.40;11.73;;;2.10;99.90;;;;;;2603746;54;20022;31
2023/04/05 07:55:45;;;;;;;21.05;11.20;;;2.10;99.90;;;;;;2603706;54;20750;31
2023/04/05 07:58:22;;;;;;;22.70;11.80;;;2.20;99.90;;;;;;2603544;54;20945;31
2023/04/05 08:01:03;;;;;;;22.00;11.20;;;2.30;99.90;;;;;;2603697;54;20490;31
2023/04/05 08:03:38;;;;;;;20.95;10.65;;;2.40;99.90;;;;;;2603688;54;20037;31
2023/04/05 08:06:16;;;;;;;18.60;11.20;;;2.40;99.90;;;;;;2603641;54;20033;31
2023/04/05 08:08:52;;;;;;;18.20;10.80;;;2.50;99.90;;;;;;2622306;46;20029;31
2023/04/05 08:11:30;;;;;;;;;;;2.70;99.90;;;;;;2622121;46;20075;31
2023/04/05 08:14:10;;;;;;;17.77;9.23;;;2.80;99.90;;;;;;2603832;54;19950;31
2023/04/05 08:16:46;;;;;;;14.73;8.40;;;2.90;99.90;;;;;;2621966;46;20078;31
2023/04/05 08:19:22;;;;;;;;;;;3.00;99.90;;;;;;2603876;54;20839;31
2023/04/05 08:21:57;;;;;;;12.10;6.95;;;3.30;99.90;;;;;;2603835;54;19942;31
2023/04/05 08:24:33;;;;;;;16.10;6.60;;;3.60;99.90;;;;;;2603795;54;20048;31
2023/04/05 08:27:12;;;;;;;12.85;6.30;;;4.00;99.90;;;;;;2622064;46;20037;31
2023/04/05 08:29:47;;;;;;;8.75;3.85;;;4.40;99.90;;;;;;2603450;54;20102;31
2023/04/05 08:32:23;;;;;;;11.68;6.20;;;4.70;99.90;;;;;;2621677;46;20057;31
2023/04/05 08:35:00;;;;;;;11.10;5.60;;;5.20;99.90;;;;;;2602675;54;20144;31
2023/04/05 08:37:41;;;;;;;12.45;4.57;;;5.80;99.90;;;;;;2603602;54;20085;31
2023/04/05 08:40:18;;;;;;;10.85;4.75;;;6.40;99.90;;;;;;2603400;54;20931;31
2023/04/05 08:42:59;;;;;;;9.40;5.25;;;7.10;99.90;;;;;;2602996;54;20042;31
2023/04/05 08:45:35;;;;;;;11.05;4.82;;;7.30;99.90;;;;;;2603290;54;20022;31
2023/04/05 08:48:11;;;;;;;11.10;3.60;;;7.50;99.90;;;;;;2603503;54;20565;31
2023/04/05 08:50:52;;;;;;;;;;;7.90;99.90;;;;;;2603770;54;20026;31
2023/04/05 08:53:29;;;;;;;8.85;4.68;;;8.00;99.90;;;;;;2603258;54;19942;31
2023/04/05 08:56:05;;;;;;;8.82;3.92;;;8.10;99.90;;;;;;2702161;39;20548;31
2023/04/05 08:58:45;;;;;;;;;;;8.10;99.90;;;;;;2603842;54;20847;31
2023/04/05 09:01:26;;;;;;;9.52;3.20;;;8.20;99.90;;;;;;2622021;46;19934;31
2023/04/05 09:04:02;;;;;;;9.32;3.05;;;8.20;99.90;;;;;;2622191;46;20619;31
2023/04/05 09:06:38;;;;;;;8.68;2.65;;;8.00;99.90;;;;;;2702057;39;20465;31
2023/04/05 09:09:13;;;;;;;5.78;3.00;;;7.90;99.90;;;;;;2603523;54;20869;31
2023/04/05 09:11:51;;;;;;;5.95;2.70;;;8.00;99.90;;;;;;2621952;46;20026;31
2023/04/05 09:14:33;;;;;;;8.90;2.80;;;8.10;99.90;;;;;;2603677;54;20096;31
2023/04/05 09:17:10;;;;;;;8.18;3.50;;;8.00;99.90;;;;;;2603536;54;20868;31
2023/04/05 09:19:45;;;;;;;3.60;2.17;;;8.20;99.90;;;;;;2603317;54;20044;31
2023/04/05 09:22:20;;;;;;;6.35;2.38;;;8.30;99.90;;;;;;2603336;54;20027;31
2023/04/05 09:24:57;;;;;;;8.10;3.40;;;8.30;99.90;;;;;;2603323;54;20753;31
2023/04/05 09:27:33;;;;;;;8.73;2.83;;;8.30;99.90;;;;;;2603381;54;20045;31
2023/04/05 09:30:23;;;;;;;10.40;4.15;;;8.30;99.90;;;;;;2621852;46;20028;31
2023/04/05 09:32:59;;;;;;;8.23;3.55;;;8.40;99.90;;;;;;2621845;46;20026;31
2023/04/05 09:35:39;;;;;;;9.30;2.83;;;8.80;99.90;;;;;;2701839;39;20489;31
2023/04/05 09:38:15;;;;;;;8.75;3.75;;;9.00;99.90;;;;;;2621762;46;20026;31
2023/04/05 09:40:51;;;;;;;7.35;3.50;;;9.40;99.90;;;;;;2621994;46;20026;31
2023/04/05 09:43:41;;;;;;;6.57;3.22;;;9.50;99.90;;;;;;2603328;54;21437;31
2023/04/05 09:46:35;;;;;;;6.95;3.70;;;9.80;99.90;;;;;;2602600;54;20045;31
2023/04/05 09:49:14;;;;;;;8.02;3.38;;;9.90;99.90;;;;;;2622027;46;21373;31
2023/04/05 09:51:50;;;;;;;9.45;4.30;;;9.70;99.90;;;;;;2701048;39;21546;31
2023/04/05 09:54:27;;;;;;;6.10;3.83;;;9.60;99.90;;;;;;2602428;54;20124;31
2023/04/05 09:57:03;;;;;;;6.70;4.30;;;9.50;99.90;;;;;;2603551;54;20864;31
2023/04/05 09:59:38;;;;;;;;;;;9.30;99.90;;;;;;2622027;46;20034;31
2023/04/05 10:02:17;;;;;;;9.02;4.03;;;9.20;99.90;;;;;;2621545;46;20820;31
2023/04/05 10:04:53;;;;;;;10.40;3.30;;;9.30;99.90;;;;;;2603378;54;20607;31
2023/04/05 10:07:28;;;;;;;;;;;9.50;99.90;;;;;;2622164;46;20034;31
2023/04/05 10:10:03;;;;;;;6.95;3.60;;;9.50;99.90;;;;;;2602761;54;20736;31
2023/04/05 10:12:40;;;;;;;8.48;3.55;;;9.40;99.90;;;;;;2602588;54;20752;31
2023/04/05 10:15:17;;;;;;;8.27;3.83;;;9.30;99.90;;;;;;2602470;54;20895;31
2023/04/05 10:18:01;;;;;;;10.27;3.70;;;9.20;99.90;;;;;;2602624;54;20033;31
2023/04/05 10:20:38;;;;;;;7.75;3.30;;;9.00;99.90;;;;;;2621812;46;20032;31
2023/04/05 10:23:18;;;;;;;8.50;3.35;;;8.90;99.90;;;;;;2621511;46;20533;31
2023/04/05 10:25:59;;;;;;;5.85;3.00;;;9.00;99.90;;;;;;2602442;54;20879;31
2023/04/05 10:28:37;;;;;;;9.50;4.10;;;9.00;99.90;;;;;;2621918;46;20026;31
2023/04/05 10:31:13;;;;;;;7.85;4.10;;;8.90;99.90;;;;;;2603579;54;20031;31
2023/04/05 10:34:06;;;;;;;6.40;3.33;;;8.90;99.90;;;;;;2603179;54;20854;31
2023/04/05 10:36:46;;;;;;;6.47;3.83;;;9.00;99.90;;;;;;2602295;54;20923;31
2023/04/05 10:39:24;;;;;;;7.20;3.58;;;9.30;99.90;;;;;;2603345;54;20108;31
2023/04/05 10:42:03;;;;;;;7.97;3.70;;;9.50;99.90;;;;;;2602479;54;19950;31
2023/04/05 10:44:40;;;;;;;6.50;3.80;;;9.60;99.90;;;;;;2602431;54;20776;31
2023/04/05 10:47:17;;;;;;;5.70;3.53;;;9.60;99.90;;;;;;2603103;54;20057;31
2023/04/05 10:49:58;;;;;;;9.15;4.45;;;9.50;99.90;;;;;;2602952;54;20048;31
2023/04/05 10:52:34;;;;;;;8.38;3.78;;;9.30;99.90;;;;;;2701781;39;21039;31
2023/04/05 10:55:10;;;;;;;;;;;9.20;99.90;;;;;;2603279;54;20061;31
2023/04/05 10:57:45;;;;;;;8.32;4.68;;;9.10;99.90;;;;;;2603206;54;20737;31
2023/04/05 11:00:22;;;;;;;7.50;4.17;;;9.00;99.90;;;;;;2621608;47;20023;31
2023/04/05 11:02:59;;;;;;;8.73;4.43;;;8.90;99.90;;;;;;2602860;54;20030;31
2023/04/05 11:05:40;;;;;;;9.10;3.90;;;8.80;99.90;;;;;;2620892;47;20875;31
2023/04/05 11:08:16;;;;;;;5.93;3.17;;;8.80;99.90;;;;;;2603115;54;20037;31
2023/04/05 11:10:51;;;;;;;6.57;3.30;;;9.00;99.90;;;;;;2701303;39;22474;31
2023/04/05 11:13:35;;;;;;;6.50;3.83;;;9.20;99.90;;;;;;2603426;54;20030;31
2023/04/05 11:16:14;;;;;;;8.98;4.32;;;9.30;99.90;;;;;;2604088;54;20781;31
2023/04/05 11:18:52;;;;;;;7.40;3.78;;;9.30;99.90;;;;;;2604142;54;20771;31
2023/04/05 11:21:30;;;;;;;8.35;3.45;;;9.30;99.90;;;;;;2604063;54;20057;31
2023/04/05 11:24:10;;;;;;;5.88;3.00;;;9.20;99.90;;;;;;2603067;54;20026;31
2023/04/05 11:26:56;;;;;;;8.25;3.35;;;9.10;99.90;;;;;;2603092;54;20769;31
2023/04/05 11:29:53;;;;;;;5.43;3.00;;;9.00;99.90;;;;;;2603878;54;20065;31
2023/04/05 11:32:41;;;;;;;6.70;3.25;;;9.00;99.90;;;;;;2603930;54;19941;31
2023/04/05 11:35:22;;;;;;;6.67;3.20;;;8.80;99.90;;;;;;2603885;54;20030;31
2023/04/05 11:37:56;;;;;;;5.28;2.90;;;8.70;99.90;;;;;;2603712;54;20857;31
2023/04/05 11:40:35;;;;;;;4.07;2.55;;;8.70;99.90;;;;;;2603160;54;20837;31
2023/04/05 11:43:11;;;;;;;6.90;2.90;;;8.60;99.90;;;;;;2610130;46;20041;31
2023/04/05 11:45:48;;;;;;;8.20;2.97;;;8.60;99.90;;;;;;2603096;54;20072;31
2023/04/05 11:48:24;;;;;;;7.75;2.30;;;8.80;99.90;;;;;;2603717;54;20031;31
2023/04/05 11:51:01;;;;;;;;;;;8.90;99.90;;;;;;2603879;54;20029;31
2023/04/05 11:53:37;;;;;;;5.28;2.45;;;9.00;99.90;;;;;;2622378;46;19935;31
2023/04/05 11:56:16;;;;;;;5.57;3.00;;;9.20;99.90;;;;;;2603745;54;20080;31
2023/04/05 11:58:51;;;;;;;6.53;2.83;;;9.10;99.90;;;;;;2603548;54;20180;31
2023/04/05 12:01:29;;;;;;;6.15;3.40;;;9.10;99.90;;;;;;2622431;46;20031;31
2023/04/05 12:04:06;;;;;;;10.43;5.28;;;9.00;99.90;;;;;;2613309;46;20034;31
2023/04/05 12:06:45;;;;;;;7.07;3.78;;;9.00;99.90;;;;;;2602851;54;20859;31
2023/04/05 12:09:20;;;;;;;9.77;4.97;;;8.90;99.90;;;;;;2603814;54;20565;31
2023/04/05 12:11:59;;;;;;;9.85;3.28;;;8.80;99.90;;;;;;2603895;54;20075;31
2023/04/05 12:14:35;;;;;;;5.97;3.10;;;8.70;99.90;;;;;;2603608;54;20026;31
2023/04/05 12:17:11;;;;;;;8.68;3.75;;;8.50;99.90;;;;;;2603542;54;20819;31
2023/04/05 12:19:47;;;;;;;6.75;3.05;;;8.50;99.90;;;;;;2603644;54;21361;31
2023/04/05 12:22:23;;;;;;;8.65;3.65;;;8.30;99.90;;;;;;2603502;54;20030;31
2023/04/05 12:24:56;;;;;;;7.07;3.55;;;8.20;99.90;;;;;;2617876;46;20663;31
2023/04/05 12:27:36;;;;;;;7.80;3.10;;;8.00;99.90;;;;;;2603863;54;20034;31
2023/04/05 12:30:18;;;;;;;8.20;2.85;;;7.90;99.90;;;;;;2702092;39;21563;31
2023/04/05 12:32:54;;;;;;;9.75;3.10;;;7.90;99.90;;;;;;2603735;54;20033;31
2023/04/05 12:35:34;;;;;;;6.85;2.72;;;8.00;99.90;;;;;;2702041;39;20552;31
2023/04/05 12:38:09;;;;;;;8.68;3.55;;;8.00;99.90;;;;;;2621855;46;20893;31
2023/04/05 12:40:45;;;;;;;7.78;3.83;;;8.10;99.90;;;;;;2603654;54;20053;31
2023/04/05 12:43:24;;;;;;;5.05;2.90;;;8.20;99.90;;;;;;2603545;54;20081;31
2023/04/05 12:48:31;;;;;;;6.87;3.40;;;8.30;99.90;;;;;;2603929;54;20573;31
2023/04/05 12:51:16;;;;;;;5.05;3.08;;;8.30;99.90;;;;;;2647744;31;20644;31
2023/04/05 12:53:50;;;;;;;5.43;3.00;;;8.20;99.90;;;;;;2603512;54;20039;31
2023/04/05 12:56:27;;;;;;;7.65;3.65;;;8.10;99.90;;;;;;2603388;54;20033;31
2023/04/05 12:59:07;;;;;;;8.60;3.75;;;8.10;99.90;;;;;;2603419;54;20762;31
2023/04/05 13:01:43;;;;;;;6.07;3.53;;;7.90;99.90;;;;;;2603594;54;20760;31
2023/04/05 13:04:21;;;;;;;6.43;3.00;;;7.60;99.90;;;;;;2616613;46;20140;31
2023/04/05 13:06:57;;;;;;;4.85;2.40;;;7.20;99.90;;;;;;2603483;54;20841;31
2023/04/05 13:09:35;;;;;;;4.73;1.97;;;6.90;99.90;;;;;;2701608;39;20493;31
2023/04/05 13:12:11;;;;;;;6.43;3.07;;;6.50;99.90;;;;;;2603419;54;20822;31
2023/04/05 13:14:49;;;;;;;;;;;6.10;99.90;;;;;;2603506;54;20087;31
2023/04/05 13:17:25;;;;;;;4.80;2.70;;;5.80;99.90;;;;;;2720541;39;20357;31
2023/04/05 13:20:03;;;;;;;5.15;2.70;;;5.60;99.90;;;;;;2701686;39;20362;31
2023/04/05 13:22:39;;;;;;;8.70;3.58;;;5.50;99.90;;;;;;2773266;31;20618;31
2023/04/05 13:25:14;;;;;;;;;;;5.40;99.90;;;;;;2616082;46;20973;31
2023/04/05 13:27:51;;;;;;;4.90;2.53;;;5.30;99.90;;;;;;2621933;46;19969;31
2023/04/05 13:30:30;;;;;;;5.70;2.90;;;5.20;99.90;;;;;;2621864;46;20045;31
2023/04/05 13:33:07;;;;;;;17.07;8.03;;;5.20;99.90;;;;;;2603517;54;20860;31
2023/04/05 13:35:44;;;;;;;;;;;5.30;99.90;;;;;;2603554;54;20023;31
2023/04/05 13:38:23;;;;;;;13.20;7.72;;;5.30;99.90;;;;;;2701419;39;20408;31
2023/04/05 13:40:58;;;;;;;12.65;7.35;;;5.40;99.90;;;;;;2603491;54;20033;31
2023/04/05 13:43:34;;;;;;;9.90;6.90;;;5.40;99.90;;;;;;2603012;54;20046;31
2023/04/05 13:46:16;;;;;;;9.20;5.95;;;5.50;99.90;;;;;;2621879;46;19934;31
2023/04/05 13:48:53;;;;;;;31.27;23.85;;;5.60;99.90;;;;;;2719847;39;21538;31
2023/04/05 13:51:33;;;;;;;27.70;12.05;;;5.70;99.90;;;;;;2603121;54;20111;31
2023/04/05 13:54:10;;;;;;;42.63;14.88;;;5.80;99.90;;;;;;2621672;46;20115;31
2023/04/05 13:56:47;;;;;;;20.00;8.00;;;5.90;99.90;;;;;;2613474;46;20083;31
2023/04/05 13:59:25;;;;;;;13.07;5.30;;;5.90;99.90;;;;;;2602451;54;20830;31
2023/04/05 14:02:24;;;;;;;11.13;5.57;;;6.00;99.90;;;;;;2602750;54;20027;31
2023/04/05 14:05:01;;;;;;;6.80;4.47;;;6.10;99.90;;;;;;2603350;54;20044;31
2023/04/05 14:07:37;;;;;;;15.93;7.47;;;6.10;99.90;;;;;;2621988;46;20115;31